Time;durP1;ratioP1;P1;durP2;ratioP2;P2;SDS_P1;SDS_P2;PMS_P1;PMS_P2;Temp;Humidity;BMP_temperature;BMP_pressure;BME280_temperature;BME280_humidity;BME280_pressure;Samples;Min_cycle;Max_cycle;Signal;HPM_P1;HPM_P2
2023/05/14 00:01:36;;;;;;;10.20;6.30;;;;;;;12.04;100.00;100997.56;6249277;28;20448;-92
2023/05/14 00:04:38;;;;;;;8.00;6.97;;;;;;;12.00;100.00;101002.19;6238021;28;20049;-91
2023/05/14 00:07:42;;;;;;;8.30;6.45;;;;;;;11.88;100.00;101002.31;6242013;28;20470;-92
2023/05/14 00:10:44;;;;;;;9.48;6.75;;;;;;;11.78;100.00;100994.38;6236344;28;20041;-91
2023/05/14 00:13:46;;;;;;;8.13;6.80;;;;;;;11.72;100.00;101000.81;6237887;28;20068;-92
2023/05/14 00:16:49;;;;;;;9.57;6.85;;;;;;;11.62;100.00;100998.09;6236322;28;20044;-92
2023/05/14 00:19:51;;;;;;;8.23;6.80;;;;;;;11.58;100.00;100995.88;6249260;28;20041;-92
2023/05/14 00:22:54;;;;;;;9.45;6.88;;;;;;;11.61;100.00;101000.84;6254638;28;20104;-91
2023/05/14 00:25:56;;;;;;;10.30;7.10;;;;;;;11.60;100.00;100994.81;6259880;28;20044;-92
2023/05/14 00:28:58;;;;;;;7.90;7.10;;;;;;;11.63;100.00;100996.38;6257161;28;20191;-92
2023/05/14 00:32:01;;;;;;;7.63;6.72;;;;;;;11.60;100.00;100992.22;6257492;28;20041;-92
2023/05/14 00:35:04;;;;;;;12.50;7.28;;;;;;;11.60;100.00;100988.78;6259504;28;20434;-92
2023/05/14 00:38:07;;;;;;;10.32;7.03;;;;;;;11.56;100.00;100987.38;6258971;28;20041;-92
2023/05/14 00:41:09;;;;;;;8.63;7.20;;;;;;;11.56;100.00;100989.97;6234694;28;20038;-92
2023/05/14 00:44:11;;;;;;;10.93;7.10;;;;;;;11.56;100.00;100992.56;6222423;28;20049;-92
2023/05/14 00:47:14;;;;;;;8.85;7.05;;;;;;;11.54;100.00;100992.69;6261119;28;20507;-92
2023/05/14 00:50:17;;;;;;;8.43;7.53;;;;;;;11.55;100.00;100996.94;6237305;28;20080;-92
2023/05/14 00:53:20;;;;;;;10.45;7.70;;;;;;;11.51;100.00;100985.13;6249395;28;20057;-92
2023/05/14 00:56:26;;;;;;;10.60;8.07;;;;;;;11.50;100.00;100993.03;6250084;28;20068;-92
2023/05/14 00:59:28;;;;;;;9.43;7.72;;;;;;;11.47;100.00;100995.84;6259036;28;20122;-92
2023/05/14 01:02:31;;;;;;;9.02;7.40;;;;;;;11.43;100.00;100996.09;6246632;28;20038;-92
2023/05/14 01:06:13;;;;;;;9.68;8.00;;;;;;;11.39;100.00;100999.03;6248441;28;20040;-92
2023/05/14 01:09:15;;;;;;;;;;;;;;;11.32;100.00;101003.00;6237957;28;20049;-92
2023/05/14 01:12:17;;;;;;;8.65;7.63;;;;;;;11.30;100.00;100997.94;6257807;28;20001;-92
2023/05/14 01:15:29;;;;;;;10.55;8.30;;;;;;;11.29;100.00;100998.06;6253307;28;20038;-92
2023/05/14 01:18:32;;;;;;;9.20;8.30;;;;;;;11.25;100.00;100991.44;6237108;28;20419;-92
2023/05/14 01:21:42;;;;;;;10.52;8.10;;;;;;;11.19;100.00;101005.69;6251659;28;20093;-92
2023/05/14 01:24:44;;;;;;;9.15;7.45;;;;;;;11.19;100.00;100997.91;6258295;28;20040;-92
2023/05/14 01:28:18;;;;;;;8.70;7.68;;;;;;;11.16;100.00;100996.38;6259081;28;20045;-92
2023/05/14 01:31:26;;;;;;;9.32;7.97;;;;;;;11.12;100.00;100997.53;6257040;28;20056;-92
2023/05/14 01:34:30;;;;;;;10.32;8.82;;;;;;;11.10;100.00;100986.44;6260380;28;20033;-92
2023/05/14 01:37:33;;;;;;;11.50;8.07;;;;;;;11.10;100.00;100988.22;6258808;28;20032;-92
2023/05/14 01:40:36;;;;;;;10.65;7.93;;;;;;;11.10;100.00;100988.22;6242422;28;20021;-92
2023/05/14 01:43:39;;;;;;;8.73;7.65;;;;;;;11.08;100.00;100992.69;6235498;28;20068;-93
2023/05/14 01:46:41;;;;;;;9.90;8.32;;;;;;;11.06;100.00;100992.81;6248346;28;20045;-92
2023/05/14 01:49:43;;;;;;;9.15;7.65;;;;;;;11.03;100.00;100987.00;6235210;28;20052;-92
2023/05/14 01:52:47;;;;;;;10.90;8.13;;;;;;;10.93;100.00;100990.31;6237349;28;20174;-92
2023/05/14 01:55:49;;;;;;;8.65;7.78;;;;;;;10.85;100.00;100984.84;6254227;28;20612;-93
2023/05/14 01:58:51;;;;;;;8.45;7.65;;;;;;;10.78;100.00;100984.47;6240660;28;20041;-92
2023/05/14 02:01:53;;;;;;;9.35;7.85;;;;;;;10.73;100.00;100977.94;6257720;28;20098;-92
2023/05/14 02:04:55;;;;;;;10.15;7.93;;;;;;;10.66;100.00;100982.78;6246698;28;20037;-92
2023/05/14 02:07:57;;;;;;;11.45;8.50;;;;;;;10.64;100.00;100973.47;6244199;28;20487;-92
2023/05/14 02:10:59;;;;;;;11.95;8.57;;;;;;;10.62;100.00;100973.56;6251315;28;20507;-92
2023/05/14 02:14:01;;;;;;;9.40;7.78;;;;;;;10.60;100.00;100978.00;6251221;28;20147;-92
2023/05/14 02:17:03;;;;;;;12.20;8.70;;;;;;;10.63;100.00;100974.38;6254394;28;20535;-92
2023/05/14 02:20:09;;;;;;;8.88;7.75;;;;;;;10.63;100.00;100977.78;6254761;28;20040;-92
2023/05/14 02:23:11;;;;;;;10.68;7.93;;;;;;;10.64;100.00;100970.88;6249851;28;20053;-93
2023/05/14 02:26:13;;;;;;;10.15;7.80;;;;;;;10.64;100.00;100965.69;6250544;28;20082;-92
2023/05/14 02:29:15;;;;;;;8.65;7.75;;;;;;;10.65;100.00;100962.16;6250613;28;20049;-92
2023/05/14 02:32:17;;;;;;;9.95;8.07;;;;;;;10.65;100.00;100957.78;6252933;28;20048;-92
2023/05/14 02:35:19;;;;;;;9.05;7.72;;;;;;;10.64;100.00;100960.50;6251904;28;20076;-92
2023/05/14 02:38:22;;;;;;;9.73;7.20;;;;;;;10.63;100.00;100961.44;6256962;28;20408;-92
2023/05/14 02:41:24;;;;;;;8.60;7.70;;;;;;;10.61;100.00;100961.56;6239976;28;20448;-92
2023/05/14 02:44:25;;;;;;;10.63;8.45;;;;;;;10.58;100.00;100966.94;6253774;28;20039;-92
2023/05/14 02:47:28;;;;;;;9.65;7.95;;;;;;;10.54;100.00;100973.28;6247971;28;20475;-92
2023/05/14 02:50:30;;;;;;;9.95;7.38;;;;;;;10.49;100.00;100962.44;6255080;28;20495;-92
2023/05/14 02:53:32;;;;;;;9.02;7.35;;;;;;;10.40;100.00;100966.50;6253979;28;20087;-92
2023/05/14 02:56:34;;;;;;;9.02;7.38;;;;;;;10.30;100.00;100968.91;6250155;28;20041;-92
2023/05/14 02:59:36;;;;;;;13.27;8.20;;;;;;;10.24;100.00;100961.56;6252986;28;20037;-92
2023/05/14 03:02:39;;;;;;;12.80;7.93;;;;;;;10.20;100.00;100964.47;6257039;28;20385;-91
2023/05/14 03:05:42;;;;;;;11.35;7.97;;;;;;;10.15;100.00;100967.38;6245692;28;20287;-92
2023/05/14 03:08:44;;;;;;;8.63;7.72;;;;;;;10.12;100.00;100965.84;6235078;28;20053;-92
2023/05/14 03:11:46;;;;;;;8.73;7.75;;;;;;;10.09;100.00;100966.06;6251271;28;20526;-92
2023/05/14 03:14:48;;;;;;;12.13;8.13;;;;;;;10.12;100.00;100967.59;6237389;28;20123;-92
2023/05/14 03:17:50;;;;;;;13.85;8.15;;;;;;;10.09;100.00;100960.88;6247561;28;20045;-92
2023/05/14 03:20:52;;;;;;;10.70;8.68;;;;;;;10.10;100.00;100959.94;6239600;28;20045;-92
2023/05/14 03:23:55;;;;;;;9.18;8.10;;;;;;;10.09;100.00;100958.28;6244071;28;20087;-92
2023/05/14 03:26:58;;;;;;;12.32;8.68;;;;;;;10.08;100.00;100961.78;6245009;28;20049;-92
2023/05/14 03:30:00;;;;;;;10.40;8.38;;;;;;;10.09;100.00;100960.06;6243541;28;20038;-91
2023/05/14 03:33:01;;;;;;;10.77;8.65;;;;;;;10.07;100.00;100962.75;6251930;28;20580;-91
2023/05/14 03:36:04;;;;;;;11.80;8.38;;;;;;;10.09;100.00;100966.06;6253024;28;20575;-92
2023/05/14 03:39:06;;;;;;;11.75;8.77;;;;;;;10.10;100.00;100964.28;6249761;28;20510;-92
2023/05/14 03:42:09;;;;;;;13.15;8.52;;;;;;;10.10;100.00;100959.94;6253917;28;20041;-91
2023/05/14 03:45:11;;;;;;;11.30;8.80;;;;;;;10.13;100.00;100964.88;6236768;28;20440;-92
2023/05/14 03:48:13;;;;;;;10.85;8.73;;;;;;;10.10;100.00;100959.94;6254946;28;20049;-92
2023/05/14 03:51:16;;;;;;;11.35;9.38;;;;;;;10.09;100.00;100960.88;6250644;28;20074;-92
2023/05/14 03:54:17;;;;;;;9.70;8.70;;;;;;;10.06;100.00;100966.28;6260936;28;20041;-92
2023/05/14 03:57:20;;;;;;;11.40;8.65;;;;;;;10.07;100.00;100957.56;6258931;28;20049;-92
2023/05/14 04:00:22;;;;;;;10.45;9.15;;;;;;;10.12;100.00;100960.66;6252957;28;20487;-92
2023/05/14 04:03:27;;;;;;;13.02;9.23;;;;;;;10.08;100.00;100954.03;6251861;28;20048;-92
2023/05/14 04:06:31;;;;;;;12.18;10.00;;;;;;;10.12;100.00;100955.47;6236894;28;20530;-92
2023/05/14 04:09:35;;;;;;;9.70;8.50;;;;;;;10.12;100.00;100954.66;6239550;28;20040;-92
2023/05/14 04:12:37;;;;;;;11.35;8.90;;;;;;;10.10;100.00;100959.13;6253878;28;20045;-92
2023/05/14 04:15:39;;;;;;;10.55;9.18;;;;;;;10.11;100.00;100959.03;6256617;28;20048;-92
2023/05/14 04:18:42;;;;;;;10.82;8.73;;;;;;;10.14;100.00;100963.16;6251128;28;20102;-91
2023/05/14 04:21:44;;;;;;;10.50;8.40;;;;;;;10.19;100.00;100966.25;6237836;28;20144;-91
2023/05/14 04:24:46;;;;;;;10.02;8.40;;;;;;;10.19;100.00;100955.06;6252940;28;20132;-91
2023/05/14 04:27:48;;;;;;;9.95;8.43;;;;;;;10.24;100.00;100952.97;6251405;28;20057;-91
2023/05/14 04:30:50;;;;;;;12.68;8.98;;;;;;;10.27;100.00;100953.56;6253907;28;20048;-92
2023/05/14 04:33:52;;;;;;;10.70;8.57;;;;;;;10.28;100.00;100944.91;6241981;28;20075;-92
2023/05/14 04:36:54;;;;;;;9.00;8.10;;;;;;;10.34;100.00;100944.47;6239551;28;20053;-92
2023/05/14 04:39:56;;;;;;;9.82;8.15;;;;;;;10.38;100.00;100950.25;6248699;28;20503;-92
2023/05/14 04:42:58;;;;;;;9.20;8.20;;;;;;;10.44;100.00;100946.41;6249224;28;20040;-92
2023/05/14 04:46:00;;;;;;;10.18;8.20;;;;;;;10.52;100.00;100951.88;6259333;28;20054;-92
2023/05/14 04:49:03;;;;;;;9.20;8.05;;;;;;;10.55;100.00;100955.03;6259397;28;20053;-92
2023/05/14 04:52:05;;;;;;;9.55;7.72;;;;;;;10.58;100.00;100951.41;6260517;28;20029;-92
2023/05/14 04:55:08;;;;;;;9.68;8.35;;;;;;;10.60;100.00;100953.91;6260875;28;20046;-91
2023/05/14 04:58:09;;;;;;;9.40;7.97;;;;;;;10.63;100.00;100957.06;6249156;28;20511;-91
2023/05/14 05:01:11;;;;;;;11.70;8.70;;;;;;;10.69;100.00;100966.19;6251028;28;20041;-92
2023/05/14 05:04:14;;;;;;;10.30;8.27;;;;;;;10.72;100.00;100966.78;6260951;28;20040;-91
2023/05/14 05:07:17;;;;;;;8.32;7.35;;;;;;;10.76;100.00;100970.81;6256632;28;20443;-91
2023/05/14 05:10:18;;;;;;;9.50;7.47;;;;;;;10.79;100.00;100967.16;6247277;28;20052;-91
2023/05/14 05:13:20;;;;;;;8.65;7.72;;;;;;;10.85;100.00;100964.13;6256262;28;20545;-91
2023/05/14 05:16:22;;;;;;;8.38;7.55;;;;;;;10.89;100.00;100962.97;6255120;28;20510;-91
2023/05/14 05:19:24;;;;;;;8.48;7.28;;;;;;;10.95;100.00;100961.69;6241392;28;20044;-91
2023/05/14 05:22:43;;;;;;;9.45;7.85;;;;;;;10.98;100.00;100959.72;6256655;28;20038;-91
2023/05/14 05:25:45;;;;;;;9.13;7.80;;;;;;;11.04;100.00;100963.59;6240039;28;20048;-91
2023/05/14 05:28:47;;;;;;;9.00;7.45;;;;;;;11.11;100.00;100969.16;6262033;28;20045;-92
2023/05/14 05:31:49;;;;;;;10.05;7.47;;;;;;;11.17;100.00;100968.69;6254510;28;20045;-91
2023/05/14 05:34:51;;;;;;;8.15;7.15;;;;;;;11.24;100.00;100967.31;6229236;28;20108;-91
2023/05/14 05:37:53;;;;;;;8.02;7.22;;;;;;;11.34;100.00;100963.06;6250602;28;20095;-91
2023/05/14 05:40:55;;;;;;;9.73;7.93;;;;;;;11.40;100.00;100964.38;6240853;28;20037;-91
2023/05/14 05:43:56;;;;;;;8.05;7.25;;;;;;;11.47;100.00;100964.75;6247362;28;20513;-91
2023/05/14 05:46:58;;;;;;;9.40;7.60;;;;;;;11.52;100.00;100970.41;6248839;28;20048;-92
2023/05/14 05:50:01;;;;;;;11.35;7.18;;;;;;;11.56;100.00;100970.06;6257445;28;20037;-91
2023/05/14 05:53:02;;;;;;;8.63;7.22;;;;;;;11.67;100.00;100965.81;6256112;28;20173;-91
2023/05/14 05:56:05;;;;;;;9.68;7.28;;;;;;;11.71;100.00;100960.28;6261118;28;20041;-92
2023/05/14 05:59:07;;;;;;;9.68;7.65;;;;;;;11.76;100.00;100971.13;6259852;28;20053;-91
2023/05/14 06:02:09;;;;;;;8.23;6.97;;;;;;;11.81;100.00;100961.22;6260495;28;20495;-91
2023/05/14 06:05:11;;;;;;;8.02;6.90;;;;;;;11.88;100.00;100960.81;6260643;28;20068;-91
2023/05/14 06:08:13;;;;;;;8.55;6.72;;;;;;;11.93;100.00;100963.84;6253653;28;20342;-92
2023/05/14 06:11:17;;;;;;;8.13;7.00;;;;;;;11.98;100.00;100957.34;6257647;28;20638;-92
2023/05/14 06:14:18;;;;;;;9.15;7.10;;;;;;;12.05;100.00;100960.31;6249746;28;20037;-91
2023/05/14 06:17:20;;;;;;;10.43;7.05;;;;;;;12.10;100.00;100958.19;6241382;28;20041;-91
2023/05/14 06:20:22;;;;;;;8.98;6.63;;;;;;;12.18;100.00;100962.75;6239211;28;20049;-91
2023/05/14 06:23:25;;;;;;;8.57;6.85;;;;;;;12.22;100.00;100957.22;6250507;28;20593;-91
2023/05/14 06:26:27;;;;;;;9.43;7.55;;;;;;;12.34;100.00;100959.78;6258450;28;20044;-92
2023/05/14 06:29:29;;;;;;;9.23;6.55;;;;;;;12.41;100.00;100964.34;6261065;28;20041;-92
2023/05/14 06:32:31;;;;;;;8.43;7.30;;;;;;;12.47;100.00;100963.03;6261032;28;20037;-91
2023/05/14 06:35:33;;;;;;;9.50;6.75;;;;;;;12.55;100.00;100955.47;6236917;28;20045;-92
2023/05/14 06:38:35;;;;;;;8.13;6.47;;;;;;;12.65;100.00;100966.75;6243875;28;20104;-92
2023/05/14 06:41:37;;;;;;;9.32;7.15;;;;;;;12.69;100.00;100960.38;6249888;28;20571;-91
2023/05/14 06:44:40;;;;;;;9.52;7.45;;;;;;;12.77;100.00;100956.31;6259171;28;20048;-91
2023/05/14 06:47:41;;;;;;;8.55;7.43;;;;;;;12.82;100.00;100954.16;6253040;28;20182;-91
2023/05/14 06:50:45;;;;;;;10.50;7.03;;;;;;;12.92;100.00;100949.88;6249716;28;20056;-91
2023/05/14 06:53:47;;;;;;;8.60;7.35;;;;;;;13.02;100.00;100957.72;6258720;28;20041;-91
2023/05/14 06:56:49;;;;;;;7.88;7.05;;;;;;;13.12;100.00;100956.84;6253020;28;20116;-91
2023/05/14 06:59:51;;;;;;;7.88;7.07;;;;;;;13.23;100.00;100957.75;6255568;28;20048;-92
2023/05/14 07:02:53;;;;;;;7.97;7.18;;;;;;;13.31;100.00;100953.56;6256148;28;20040;-92
2023/05/14 07:05:55;;;;;;;9.52;7.32;;;;;;;13.38;100.00;100956.47;6248905;28;20124;-92
2023/05/14 07:08:58;;;;;;;9.50;7.28;;;;;;;13.47;100.00;100960.91;6251568;28;20049;-92
2023/05/14 07:12:00;;;;;;;9.55;7.63;;;;;;;13.56;100.00;100957.56;6265288;28;20502;-92
2023/05/14 07:15:02;;;;;;;8.38;7.43;;;;;;;13.71;100.00;100949.38;6253736;28;20565;-92
2023/05/14 07:18:05;;;;;;;9.93;7.50;;;;;;;13.81;100.00;100955.44;6263474;28;20044;-92
2023/05/14 07:21:07;;;;;;;8.85;7.68;;;;;;;13.88;100.00;100945.34;6255332;28;20045;-92
2023/05/14 07:24:09;;;;;;;9.88;7.15;;;;;;;13.93;100.00;100948.34;6251750;28;20064;-92
2023/05/14 07:27:11;;;;;;;8.73;6.80;;;;;;;14.00;100.00;100946.88;6254179;28;20056;-92
2023/05/14 07:30:14;;;;;;;8.18;7.15;;;;;;;14.13;100.00;100942.22;6224878;28;20518;-92
2023/05/14 07:33:16;;;;;;;9.20;7.47;;;;;;;14.18;100.00;100941.84;6254266;28;20087;-92
2023/05/14 07:36:18;;;;;;;8.07;6.93;;;;;;;14.22;100.00;100948.44;6256002;28;20291;-92
2023/05/14 07:39:22;;;;;;;7.65;6.93;;;;;;;14.24;100.00;100943.91;6253651;28;20118;-92
2023/05/14 07:42:24;;;;;;;7.60;6.80;;;;;;;14.29;100.00;100933.91;6255868;28;20099;-91
2023/05/14 07:45:40;;;;;;;7.22;6.47;;;;;;;14.41;100.00;100934.63;6255392;28;20115;-91
2023/05/14 07:48:42;;;;;;;8.68;6.80;;;;;;;14.61;100.00;100936.31;6253783;28;20045;-91
2023/05/14 07:51:44;;;;;;;8.55;6.60;;;;;;;14.76;100.00;100938.50;6259948;28;20036;-92
2023/05/14 07:54:46;;;;;;;7.68;6.88;;;;;;;14.78;100.00;100936.56;6255388;28;20060;-91
2023/05/14 07:57:51;;;;;;;8.90;7.53;;;;;;;14.84;100.00;100936.00;6256784;28;20420;-92
2023/05/14 08:00:53;;;;;;;9.18;6.75;;;;;;;14.98;100.00;100937.34;6260195;28;20052;-92
2023/05/14 08:03:55;;;;;;;6.80;6.15;;;;;;;15.20;100.00;100933.59;6264293;28;20044;-91
2023/05/14 08:06:57;;;;;;;7.68;6.75;;;;;;;15.47;100.00;100930.22;6251513;28;20045;-92
2023/05/14 08:09:59;;;;;;;9.43;6.78;;;;;;;15.71;100.00;100930.56;6255495;28;20041;-91
2023/05/14 08:13:01;;;;;;;7.57;6.85;;;;;;;16.00;100.00;100918.31;6263264;28;20050;-92
2023/05/14 08:16:04;;;;;;;8.25;7.05;;;;;;;16.09;100.00;100918.25;6239642;28;20410;-92
2023/05/14 08:19:06;;;;;;;8.48;6.18;;;;;;;16.25;100.00;100916.81;6243566;28;20148;-92
2023/05/14 08:22:08;;;;;;;8.98;6.80;;;;;;;16.30;100.00;100919.81;6262655;28;20384;-92
2023/05/14 08:25:10;;;;;;;7.45;6.75;;;;;;;16.29;100.00;100918.13;6259225;28;20045;-92
2023/05/14 08:28:12;;;;;;;7.72;6.03;;;;;;;16.31;100.00;100918.81;6251573;28;20040;-91
2023/05/14 08:31:14;;;;;;;7.78;6.90;;;;;;;16.33;100.00;100909.84;6272824;28;20406;-92
2023/05/14 08:34:17;;;;;;;7.82;6.15;;;;;;;16.35;100.00;100910.53;6262841;28;20045;-92
2023/05/14 08:37:19;;;;;;;6.93;6.10;;;;;;;16.42;100.00;100910.78;6261622;28;20033;-92
2023/05/14 08:40:21;;;;;;;6.85;5.90;;;;;;;16.52;100.00;100906.28;6262622;28;20048;-91
2023/05/14 08:43:44;;;;;;;6.57;5.97;;;;;;;16.67;100.00;100901.34;6263129;28;20048;-92
2023/05/14 08:46:49;;;;;;;6.10;5.28;;;;;;;16.77;100.00;100894.22;6248009;28;20056;-92
2023/05/14 08:50:05;;;;;;;5.40;4.63;;;;;;;16.95;100.00;100894.19;6253882;28;20048;-92
2023/05/14 08:53:07;;;;;;;4.40;4.00;;;;;;;17.13;100.00;100883.69;6252300;28;20102;-91
2023/05/14 08:56:09;;;;;;;4.40;3.97;;;;;;;17.29;100.00;100884.72;6256237;28;20106;-92
2023/05/14 08:59:12;;;;;;;6.40;4.35;;;;;;;17.48;100.00;100891.53;6249452;28;20051;-92
2023/05/14 09:02:16;;;;;;;9.85;4.65;;;;;;;17.63;100.00;100880.28;6246056;28;20119;-92
2023/05/14 09:05:19;;;;;;;7.50;5.25;;;;;;;17.81;100.00;100882.88;6245335;28;20075;-92
2023/05/14 09:08:22;;;;;;;5.15;4.55;;;;;;;18.07;100.00;100887.16;6243256;28;20551;-92
2023/05/14 09:11:24;;;;;;;5.28;4.78;;;;;;;18.30;100.00;100887.34;6255619;28;20048;-92
2023/05/14 09:14:26;;;;;;;6.40;4.90;;;;;;;18.43;100.00;100885.06;6250412;28;20033;-92
2023/05/14 09:17:28;;;;;;;5.50;4.95;;;;;;;18.63;100.00;100885.56;6240098;28;20517;-92
2023/05/14 09:20:31;;;;;;;6.00;4.82;;;;;;;18.84;100.00;100881.63;6259766;28;20045;-92
2023/05/14 09:23:33;;;;;;;6.65;4.57;;;;;;;19.06;100.00;100885.38;6252540;28;20048;-93
2023/05/14 09:26:36;;;;;;;5.47;4.30;;;;;;;19.11;100.00;100878.63;6256070;28;20041;-93
2023/05/14 09:29:38;;;;;;;5.75;5.15;;;;;;;19.26;100.00;100877.91;6248472;28;20056;-93
2023/05/14 09:32:43;;;;;;;6.25;4.82;;;;;;;19.24;100.00;100872.03;6256600;28;20411;-93
2023/05/14 09:35:46;;;;;;;7.88;4.97;;;;;;;19.20;100.00;100870.72;6238108;28;20388;-93
2023/05/14 09:38:48;;;;;;;5.05;4.55;;;;;;;19.29;100.00;100865.25;6254302;28;20144;-92
2023/05/14 09:41:50;;;;;;;6.85;4.45;;;;;;;19.48;100.00;100863.25;6225064;28;20071;-93
2023/05/14 09:44:52;;;;;;;5.35;4.10;;;;;;;19.80;100.00;100849.16;6254633;28;20059;-93
2023/05/14 09:47:54;;;;;;;4.90;3.75;;;;;;;20.08;100.00;100856.50;6255633;28;20033;-93
2023/05/14 09:50:57;;;;;;;4.68;3.95;;;;;;;20.30;100.00;100853.06;6256666;28;20087;-93
2023/05/14 09:53:59;;;;;;;8.18;3.90;;;;;;;20.50;100.00;100847.31;6254942;28;20033;-93
2023/05/14 09:57:02;;;;;;;5.72;4.00;;;;;;;20.56;100.00;100843.97;6259984;28;20098;-93
2023/05/14 10:00:04;;;;;;;5.65;4.13;;;;;;;20.51;100.00;100841.84;6242053;28;20430;-93
2023/05/14 10:03:07;;;;;;;4.97;3.75;;;;;;;20.52;100.00;100837.41;6259999;28;20383;-92
2023/05/14 10:06:12;;;;;;;4.40;4.00;;;;;;;20.40;100.00;100840.47;6251757;28;20122;-93
2023/05/14 10:09:18;;;;;;;5.20;3.88;;;;;;;20.19;100.00;100835.06;6251126;28;20475;-93
2023/05/14 10:12:22;;;;;;;4.25;3.85;;;;;;;19.89;100.00;100832.31;6262133;28;20114;-93
2023/05/14 10:15:35;;;;;;;5.57;3.83;;;;;;;19.63;100.00;100832.63;6258801;28;20384;-92
2023/05/14 10:18:47;;;;;;;4.30;3.90;;;;;;;19.58;100.00;100822.63;6230219;28;20042;-92
2023/05/14 10:21:55;;;;;;;4.45;3.63;;;;;;;19.47;100.00;100825.63;6258437;28;20052;-93
2023/05/14 10:24:58;;;;;;;7.43;4.05;;;;;;;19.47;100.00;100817.75;6253400;28;20037;-93
2023/05/14 10:28:00;;;;;;;5.78;4.13;;;;;;;19.63;100.00;100826.56;6254663;28;20041;-93
2023/05/14 10:31:02;;;;;;;4.90;4.30;;;;;;;19.86;100.00;100822.16;6253495;28;20167;-93
2023/05/14 10:34:41;;;;;;;5.53;4.15;;;;;;;20.08;100.00;100827.59;6252427;28;20084;-93
2023/05/14 10:37:44;;;;;;;5.32;4.22;;;;;;;20.29;100.00;100814.59;6267086;28;20060;-94
2023/05/14 10:40:47;;;;;;;5.57;4.07;;;;;;;20.42;100.00;100816.63;6250333;28;20547;-93
2023/05/14 10:43:49;;;;;;;4.88;4.30;;;;;;;20.59;100.00;100812.84;6267846;28;20151;-93
2023/05/14 10:46:52;;;;;;;5.13;4.35;;;;;;;20.73;100.00;100810.44;6251259;28;20041;-93
2023/05/14 10:50:03;;;;;;;6.57;4.50;;;;;;;20.94;100.00;100804.44;6253308;28;20473;-93
2023/05/14 10:53:11;;;;;;;5.07;4.25;;;;;;;21.10;100.00;100792.91;6261764;28;20047;-93
2023/05/14 10:56:13;;;;;;;5.60;4.38;;;;;;;21.31;100.00;100800.84;6253776;28;20045;-93
2023/05/14 10:59:26;;;;;;;5.68;4.45;;;;;;;21.62;100.00;100798.00;6255563;28;20050;-93
2023/05/14 11:02:35;;;;;;;5.10;3.90;;;;;;;22.04;100.00;100795.56;6254914;28;20037;-94
2023/05/14 11:05:40;;;;;;;6.68;4.35;;;;;;;22.44;100.00;100793.25;6253507;28;20033;-94
2023/05/14 11:08:43;;;;;;;6.85;4.90;;;;;;;22.80;100.00;100796.50;6256728;28;20304;-94
2023/05/14 11:11:46;;;;;;;4.97;4.40;;;;;;;23.02;100.00;100790.34;6237303;28;20044;-93
2023/05/14 11:14:49;;;;;;;7.05;4.53;;;;;;;22.94;93.98;100792.09;6259259;28;20064;-94
2023/05/14 11:17:52;;;;;;;4.70;4.05;;;;;;;22.68;89.72;100791.97;6260525;28;20135;-93
2023/05/14 11:21:01;;;;;;;7.85;4.40;;;;;;;22.50;96.28;100782.72;6253055;28;20084;-95
2023/05/14 11:24:04;;;;;;;5.38;4.05;;;;;;;22.59;100.00;100772.84;6261413;28;20127;-94
2023/05/14 11:27:08;;;;;;;5.30;4.20;;;;;;;22.76;96.32;100774.16;6254004;28;20045;-94
2023/05/14 11:30:20;;;;;;;5.35;4.03;;;;;;;22.76;90.93;100776.78;6251377;28;20045;-94
2023/05/14 11:33:22;;;;;;;4.68;3.97;;;;;;;22.72;85.98;100766.81;6259152;28;20037;-94
2023/05/14 11:36:24;;;;;;;6.00;4.18;;;;;;;22.68;86.25;100768.22;6253644;28;20047;-93
2023/05/14 11:39:26;;;;;;;5.78;3.55;;;;;;;22.75;87.99;100759.31;6258754;28;20037;-93
2023/05/14 11:42:28;;;;;;;4.80;4.25;;;;;;;22.83;73.76;100761.00;6255409;28;20033;-94
2023/05/14 11:45:31;;;;;;;4.50;3.90;;;;;;;22.97;79.15;100757.41;6263306;28;20036;-93
2023/05/14 11:48:33;;;;;;;7.00;4.13;;;;;;;23.06;72.26;100750.16;6261418;28;20045;-93
2023/05/14 11:51:36;;;;;;;4.57;3.85;;;;;;;23.00;76.02;100741.22;6259996;28;20048;-93
2023/05/14 11:54:38;;;;;;;5.10;3.95;;;;;;;22.87;76.16;100749.03;6243811;28;20538;-93
2023/05/14 11:57:40;;;;;;;6.07;4.18;;;;;;;22.95;81.27;100745.41;6263645;28;20037;-93
2023/05/14 12:00:44;;;;;;;4.35;3.67;;;;;;;22.92;78.01;100730.75;6251438;28;20493;-93
2023/05/14 12:03:46;;;;;;;6.43;4.38;;;;;;;23.22;83.09;100738.41;6253882;28;20037;-94
2023/05/14 12:06:48;;;;;;;5.88;4.60;;;;;;;23.39;72.96;100738.84;6253762;28;20044;-93
2023/05/14 12:09:51;;;;;;;5.18;3.75;;;;;;;23.58;80.52;100726.69;6243521;28;20049;-94
2023/05/14 12:12:53;;;;;;;6.05;3.72;;;;;;;23.82;66.93;100727.94;6241134;28;20045;-93
2023/05/14 12:15:57;;;;;;;4.68;3.97;;;;;;;24.03;72.37;100721.66;6255665;28;20041;-93
2023/05/14 12:19:00;;;;;;;4.43;3.80;;;;;;;24.26;67.41;100721.19;6252534;28;20564;-93
2023/05/14 12:22:02;;;;;;;5.50;4.32;;;;;;;24.44;68.73;100723.19;6261325;28;20131;-94
2023/05/14 12:25:11;;;;;;;4.20;3.60;;;;;;;24.68;68.72;100717.25;6251288;28;20048;-93
2023/05/14 12:28:19;;;;;;;5.63;4.00;;;;;;;24.97;54.78;100714.25;6261540;28;20060;-93
2023/05/14 12:31:37;;;;;;;3.80;3.20;;;;;;;25.27;54.72;100709.25;6263222;28;20049;-94
2023/05/14 12:34:39;;;;;;;3.95;3.60;;;;;;;25.39;59.98;100701.41;6251020;28;20053;-94
2023/05/14 12:37:41;;;;;;;4.97;3.50;;;;;;;25.15;65.57;100693.97;6254249;28;20040;-93
2023/05/14 12:40:44;;;;;;;6.47;3.63;;;;;;;24.98;68.51;100686.75;6258819;28;20032;-93
2023/05/14 12:43:48;;;;;;;6.47;3.85;;;;;;;24.90;71.37;100685.19;6255920;28;20570;-93
2023/05/14 12:46:50;;;;;;;5.97;3.88;;;;;;;24.80;56.74;100693.56;6252531;28;20179;-94
2023/05/14 12:49:53;;;;;;;4.25;3.55;;;;;;;24.49;55.25;100678.41;6256534;28;20064;-94
2023/05/14 12:52:55;;;;;;;3.83;3.42;;;;;;;24.26;68.52;100674.38;6259779;28;20047;-93
2023/05/14 12:55:57;;;;;;;4.00;3.53;;;;;;;24.33;74.99;100676.22;6250269;28;20617;-94
2023/05/14 12:58:59;;;;;;;3.92;3.60;;;;;;;24.37;72.06;100675.59;6253600;28;20414;-94
2023/05/14 13:02:01;;;;;;;5.03;3.85;;;;;;;24.39;62.54;100670.06;6262204;28;20040;-94
2023/05/14 13:05:03;;;;;;;4.05;3.75;;;;;;;24.62;67.60;100665.16;6262393;28;20049;-94
2023/05/14 13:08:05;;;;;;;3.92;3.47;;;;;;;25.12;68.59;100661.81;6261395;28;20040;-95
2023/05/14 13:11:15;;;;;;;4.35;3.58;;;;;;;25.47;61.28;100656.09;6257781;28;20171;-94
2023/05/14 13:14:17;;;;;;;5.68;3.70;;;;;;;25.65;57.31;100656.13;6250575;28;20064;-94
2023/05/14 13:17:22;;;;;;;5.22;3.53;;;;;;;25.57;55.88;100649.28;6248382;28;20044;-94
2023/05/14 13:20:26;;;;;;;4.38;3.25;;;;;;;25.49;55.23;100638.94;6253775;28;20136;-94
2023/05/14 13:23:28;;;;;;;4.38;3.13;;;;;;;25.42;62.83;100643.50;6257551;28;20154;-94
2023/05/14 13:26:30;;;;;;;3.70;3.40;;;;;;;25.29;63.57;100638.28;6250088;28;20206;-94
2023/05/14 13:29:32;;;;;;;4.25;3.10;;;;;;;25.43;59.95;100633.69;6258561;28;20044;-94
2023/05/14 13:32:34;;;;;;;3.35;3.05;;;;;;;25.52;61.96;100630.56;6258928;28;20090;-94
2023/05/14 13:35:36;;;;;;;4.80;3.17;;;;;;;25.69;69.19;100628.16;6258770;28;20771;-94
2023/05/14 13:38:39;;;;;;;3.65;2.88;;;;;;;25.79;59.36;100632.97;6251163;28;20037;-93
2023/05/14 13:41:41;;;;;;;3.25;2.85;;;;;;;25.89;61.13;100625.34;6257047;28;20049;-95
2023/05/14 13:44:43;;;;;;;6.68;2.90;;;;;;;26.05;57.86;100623.94;6247068;28;20049;-94
2023/05/14 13:47:46;;;;;;;4.85;3.53;;;;;;;26.22;53.64;100618.84;6255175;28;20411;-95
2023/05/14 13:50:55;;;;;;;8.90;3.87;;;;;;;26.26;58.46;100616.56;6258614;28;20041;-95
2023/05/14 13:53:57;;;;;;;4.30;3.20;;;;;;;26.32;50.85;100615.69;6247640;28;20044;-94
2023/05/14 13:56:59;;;;;;;4.70;3.20;;;;;;;26.30;49.88;100613.25;6252592;28;20033;-94
2023/05/14 14:00:03;;;;;;;3.30;2.97;;;;;;;26.16;54.63;100601.16;6251054;28;20081;-94
2023/05/14 14:03:06;;;;;;;5.50;3.25;;;;;;;26.28;55.02;100595.91;6256496;28;20048;-95